sensor_id;sensor_type;location;lat;lon;timestamp;P1;durP1;ratioP1;P2;durP2;ratioP2
2840;SDS011;53423;49.224;12.074;2023-05-07T00:01:42;4.73;;;4.43;;
2840;SDS011;53423;49.224;12.074;2023-05-07T00:04:10;5.07;;;4.67;;
2840;SDS011;53423;49.224;12.074;2023-05-07T00:06:41;5.60;;;4.60;;
2840;SDS011;53423;49.224;12.074;2023-05-07T00:09:10;5.00;;;4.60;;
2840;SDS011;53423;49.224;12.074;2023-05-07T00:11:38;4.80;;;4.27;;
2840;SDS011;53423;49.224;12.074;2023-05-07T00:14:06;4.50;;;4.20;;
2840;SDS011;53423;49.224;12.074;2023-05-07T00:16:34;5.33;;;4.43;;
2840;SDS011;53423;49.224;12.074;2023-05-07T00:19:02;5.27;;;4.67;;
2840;SDS011;53423;49.224;12.074;2023-05-07T00:21:31;5.73;;;5.10;;
2840;SDS011;53423;49.224;12.074;2023-05-07T00:24:00;4.93;;;4.53;;
2840;SDS011;53423;49.224;12.074;2023-05-07T00:26:28;5.80;;;5.40;;
2840;SDS011;53423;49.224;12.074;2023-05-07T00:28:56;5.87;;;5.37;;
2840;SDS011;53423;49.224;12.074;2023-05-07T00:31:24;6.63;;;6.13;;
2840;SDS011;53423;49.224;12.074;2023-05-07T00:33:52;6.33;;;5.83;;
2840;SDS011;53423;49.224;12.074;2023-05-07T00:36:20;6.20;;;5.70;;
2840;SDS011;53423;49.224;12.074;2023-05-07T00:38:48;5.87;;;5.37;;
2840;SDS011;53423;49.224;12.074;2023-05-07T00:41:17;6.60;;;6.07;;
2840;SDS011;53423;49.224;12.074;2023-05-07T00:43:45;6.80;;;6.07;;
2840;SDS011;53423;49.224;12.074;2023-05-07T00:46:13;6.00;;;5.50;;
2840;SDS011;53423;49.224;12.074;2023-05-07T00:48:42;6.57;;;5.97;;
2840;SDS011;53423;49.224;12.074;2023-05-07T00:51:10;6.17;;;5.73;;
2840;SDS011;53423;49.224;12.074;2023-05-07T00:53:38;5.93;;;5.53;;
2840;SDS011;53423;49.224;12.074;2023-05-07T00:56:07;6.03;;;5.53;;
2840;SDS011;53423;49.224;12.074;2023-05-07T00:58:36;5.73;;;5.23;;
2840;SDS011;53423;49.224;12.074;2023-05-07T01:01:05;5.73;;;5.23;;
2840;SDS011;53423;49.224;12.074;2023-05-07T01:03:32;6.80;;;6.17;;
2840;SDS011;53423;49.224;12.074;2023-05-07T01:06:01;6.30;;;5.70;;
2840;SDS011;53423;49.224;12.074;2023-05-07T01:08:30;6.33;;;5.83;;
2840;SDS011;53423;49.224;12.074;2023-05-07T01:10:59;6.40;;;5.73;;
2840;SDS011;53423;49.224;12.074;2023-05-07T01:13:27;6.27;;;5.67;;
2840;SDS011;53423;49.224;12.074;2023-05-07T01:15:58;6.10;;;5.63;;
2840;SDS011;53423;49.224;12.074;2023-05-07T01:18:26;6.30;;;5.70;;
2840;SDS011;53423;49.224;12.074;2023-05-07T01:20:56;6.90;;;6.30;;
2840;SDS011;53423;49.224;12.074;2023-05-07T01:23:27;6.23;;;5.63;;
2840;SDS011;53423;49.224;12.074;2023-05-07T01:25:57;6.33;;;5.83;;
2840;SDS011;53423;49.224;12.074;2023-05-07T01:28:25;7.00;;;6.40;;
2840;SDS011;53423;49.224;12.074;2023-05-07T01:30:54;6.80;;;6.30;;
2840;SDS011;53423;49.224;12.074;2023-05-07T01:33:25;6.90;;;6.17;;
2840;SDS011;53423;49.224;12.074;2023-05-07T01:35:57;7.07;;;6.37;;
2840;SDS011;53423;49.224;12.074;2023-05-07T01:38:29;6.50;;;6.00;;
2840;SDS011;53423;49.224;12.074;2023-05-07T01:40:58;7.07;;;6.47;;
2840;SDS011;53423;49.224;12.074;2023-05-07T01:43:26;7.53;;;6.70;;
2840;SDS011;53423;49.224;12.074;2023-05-07T01:45:55;7.00;;;6.50;;
2840;SDS011;53423;49.224;12.074;2023-05-07T01:48:25;7.77;;;7.07;;
2840;SDS011;53423;49.224;12.074;2023-05-07T01:50:53;7.20;;;6.50;;
2840;SDS011;53423;49.224;12.074;2023-05-07T01:53:22;7.17;;;6.53;;
2840;SDS011;53423;49.224;12.074;2023-05-07T01:55:51;6.90;;;6.30;;
2840;SDS011;53423;49.224;12.074;2023-05-07T01:58:19;8.40;;;7.07;;
2840;SDS011;53423;49.224;12.074;2023-05-07T02:00:47;7.50;;;6.80;;
2840;SDS011;53423;49.224;12.074;2023-05-07T02:03:15;7.90;;;7.20;;
2840;SDS011;53423;49.224;12.074;2023-05-07T02:05:43;7.47;;;6.87;;
2840;SDS011;53423;49.224;12.074;2023-05-07T02:08:11;7.77;;;7.07;;
2840;SDS011;53423;49.224;12.074;2023-05-07T02:10:39;7.77;;;7.07;;
2840;SDS011;53423;49.224;12.074;2023-05-07T02:13:08;7.80;;;7.10;;
2840;SDS011;53423;49.224;12.074;2023-05-07T02:15:36;7.37;;;6.77;;
2840;SDS011;53423;49.224;12.074;2023-05-07T02:18:05;7.97;;;7.33;;
2840;SDS011;53423;49.224;12.074;2023-05-07T02:20:34;8.17;;;7.40;;
2840;SDS011;53423;49.224;12.074;2023-05-07T02:23:02;8.03;;;7.33;;
2840;SDS011;53423;49.224;12.074;2023-05-07T02:25:30;8.20;;;7.43;;
2840;SDS011;53423;49.224;12.074;2023-05-07T02:27:58;8.03;;;7.30;;
2840;SDS011;53423;49.224;12.074;2023-05-07T02:30:28;7.40;;;6.87;;
2840;SDS011;53423;49.224;12.074;2023-05-07T02:32:56;8.10;;;7.50;;
2840;SDS011;53423;49.224;12.074;2023-05-07T02:35:24;10.27;;;8.80;;
2840;SDS011;53423;49.224;12.074;2023-05-07T02:37:52;8.87;;;8.17;;
2840;SDS011;53423;49.224;12.074;2023-05-07T02:40:20;9.80;;;8.80;;
2840;SDS011;53423;49.224;12.074;2023-05-07T02:42:48;9.20;;;8.30;;
2840;SDS011;53423;49.224;12.074;2023-05-07T02:45:16;9.47;;;8.57;;
2840;SDS011;53423;49.224;12.074;2023-05-07T02:47:45;11.27;;;9.90;;
2840;SDS011;53423;49.224;12.074;2023-05-07T02:50:13;10.70;;;9.80;;
2840;SDS011;53423;49.224;12.074;2023-05-07T02:52:42;10.40;;;9.50;;
2840;SDS011;53423;49.224;12.074;2023-05-07T02:55:09;9.97;;;9.23;;
2840;SDS011;53423;49.224;12.074;2023-05-07T02:57:38;10.50;;;9.60;;
2840;SDS011;53423;49.224;12.074;2023-05-07T03:00:12;10.97;;;9.97;;
2840;SDS011;53423;49.224;12.074;2023-05-07T03:02:41;10.40;;;9.50;;
2840;SDS011;53423;49.224;12.074;2023-05-07T03:05:11;10.80;;;9.80;;
2840;SDS011;53423;49.224;12.074;2023-05-07T03:07:40;11.10;;;9.90;;
2840;SDS011;53423;49.224;12.074;2023-05-07T03:10:11;10.70;;;9.80;;
2840;SDS011;53423;49.224;12.074;2023-05-07T03:12:39;10.80;;;9.87;;
2840;SDS011;53423;49.224;12.074;2023-05-07T03:15:08;11.73;;;10.67;;
2840;SDS011;53423;49.224;12.074;2023-05-07T03:17:36;11.07;;;10.17;;
2840;SDS011;53423;49.224;12.074;2023-05-07T03:20:05;11.10;;;10.10;;
2840;SDS011;53423;49.224;12.074;2023-05-07T03:22:35;11.23;;;10.13;;
2840;SDS011;53423;49.224;12.074;2023-05-07T03:25:03;10.43;;;9.63;;
2840;SDS011;53423;49.224;12.074;2023-05-07T03:27:32;11.93;;;10.90;;
2840;SDS011;53423;49.224;12.074;2023-05-07T03:30:00;10.77;;;9.87;;
2840;SDS011;53423;49.224;12.074;2023-05-07T03:32:28;10.57;;;9.77;;
2840;SDS011;53423;49.224;12.074;2023-05-07T03:34:56;10.97;;;10.07;;
2840;SDS011;53423;49.224;12.074;2023-05-07T03:37:24;10.97;;;10.00;;
2840;SDS011;53423;49.224;12.074;2023-05-07T03:39:53;10.40;;;9.50;;
2840;SDS011;53423;49.224;12.074;2023-05-07T03:42:21;10.53;;;9.63;;
2840;SDS011;53423;49.224;12.074;2023-05-07T03:44:49;10.67;;;9.67;;
2840;SDS011;53423;49.224;12.074;2023-05-07T03:47:17;11.27;;;10.37;;
2840;SDS011;53423;49.224;12.074;2023-05-07T03:49:44;11.60;;;10.53;;
2840;SDS011;53423;49.224;12.074;2023-05-07T03:52:12;10.37;;;9.53;;
2840;SDS011;53423;49.224;12.074;2023-05-07T03:54:40;11.37;;;10.37;;
2840;SDS011;53423;49.224;12.074;2023-05-07T03:57:10;10.70;;;9.70;;
2840;SDS011;53423;49.224;12.074;2023-05-07T03:59:37;11.10;;;10.20;;
2840;SDS011;53423;49.224;12.074;2023-05-07T04:02:06;11.63;;;10.63;;
2840;SDS011;53423;49.224;12.074;2023-05-07T04:04:34;10.83;;;9.80;;
2840;SDS011;53423;49.224;12.074;2023-05-07T04:07:02;11.07;;;10.17;;
2840;SDS011;53423;49.224;12.074;2023-05-07T04:09:30;11.50;;;10.50;;
2840;SDS011;53423;49.224;12.074;2023-05-07T04:11:58;11.27;;;10.27;;
2840;SDS011;53423;49.224;12.074;2023-05-07T04:14:29;12.10;;;10.80;;
2840;SDS011;53423;49.224;12.074;2023-05-07T04:16:58;11.77;;;10.73;;
2840;SDS011;53423;49.224;12.074;2023-05-07T04:19:26;10.93;;;10.03;;
2840;SDS011;53423;49.224;12.074;2023-05-07T04:21:54;10.97;;;9.97;;
2840;SDS011;53423;49.224;12.074;2023-05-07T04:24:22;11.30;;;10.30;;
2840;SDS011;53423;49.224;12.074;2023-05-07T04:26:50;10.93;;;10.03;;
2840;SDS011;53423;49.224;12.074;2023-05-07T04:29:19;12.00;;;10.80;;
2840;SDS011;53423;49.224;12.074;2023-05-07T04:31:48;10.40;;;9.50;;
2840;SDS011;53423;49.224;12.074;2023-05-07T04:34:16;11.73;;;10.73;;
2840;SDS011;53423;49.224;12.074;2023-05-07T04:36:44;11.67;;;10.70;;
2840;SDS011;53423;49.224;12.074;2023-05-07T04:39:12;11.00;;;10.00;;
2840;SDS011;53423;49.224;12.074;2023-05-07T04:41:40;10.70;;;9.80;;
2840;SDS011;53423;49.224;12.074;2023-05-07T04:44:08;10.90;;;9.80;;
2840;SDS011;53423;49.224;12.074;2023-05-07T04:46:37;11.03;;;10.03;;
2840;SDS011;53423;49.224;12.074;2023-05-07T04:49:06;10.57;;;9.63;;
2840;SDS011;53423;49.224;12.074;2023-05-07T04:51:34;11.60;;;10.57;;
2840;SDS011;53423;49.224;12.074;2023-05-07T04:54:02;11.13;;;10.27;;
2840;SDS011;53423;49.224;12.074;2023-05-07T04:56:29;11.53;;;10.50;;
2840;SDS011;53423;49.224;12.074;2023-05-07T04:58:57;11.23;;;10.33;;
2840;SDS011;53423;49.224;12.074;2023-05-07T05:01:25;10.87;;;9.97;;
2840;SDS011;53423;49.224;12.074;2023-05-07T05:03:53;10.83;;;9.93;;
2840;SDS011;53423;49.224;12.074;2023-05-07T05:06:23;10.67;;;9.70;;
2840;SDS011;53423;49.224;12.074;2023-05-07T05:08:51;10.73;;;9.83;;
2840;SDS011;53423;49.224;12.074;2023-05-07T05:11:18;11.67;;;10.67;;
2840;SDS011;53423;49.224;12.074;2023-05-07T05:13:47;10.93;;;9.93;;
2840;SDS011;53423;49.224;12.074;2023-05-07T05:16:15;9.97;;;9.07;;
2840;SDS011;53423;49.224;12.074;2023-05-07T05:18:43;11.00;;;9.20;;
2840;SDS011;53423;49.224;12.074;2023-05-07T05:21:11;10.13;;;9.13;;
2840;SDS011;53423;49.224;12.074;2023-05-07T05:23:40;10.33;;;9.30;;
2840;SDS011;53423;49.224;12.074;2023-05-07T05:26:08;9.67;;;8.87;;
2840;SDS011;53423;49.224;12.074;2023-05-07T05:28:36;10.57;;;9.67;;
2840;SDS011;53423;49.224;12.074;2023-05-07T05:31:04;9.77;;;9.00;;
2840;SDS011;53423;49.224;12.074;2023-05-07T05:33:32;10.20;;;9.00;;
2840;SDS011;53423;49.224;12.074;2023-05-07T05:36:00;9.03;;;8.33;;
2840;SDS011;53423;49.224;12.074;2023-05-07T05:38:28;8.93;;;8.17;;
2840;SDS011;53423;49.224;12.074;2023-05-07T05:40:57;9.27;;;8.47;;
2840;SDS011;53423;49.224;12.074;2023-05-07T05:43:26;8.73;;;8.03;;
2840;SDS011;53423;49.224;12.074;2023-05-07T05:45:55;8.40;;;7.70;;
2840;SDS011;53423;49.224;12.074;2023-05-07T05:48:23;8.83;;;8.10;;
2840;SDS011;53423;49.224;12.074;2023-05-07T05:50:51;9.47;;;8.73;;
2840;SDS011;53423;49.224;12.074;2023-05-07T05:53:19;8.70;;;8.00;;
2840;SDS011;53423;49.224;12.074;2023-05-07T05:55:47;9.63;;;7.83;;
2840;SDS011;53423;49.224;12.074;2023-05-07T05:58:17;8.73;;;8.07;;
2840;SDS011;53423;49.224;12.074;2023-05-07T06:00:45;8.90;;;7.93;;
2840;SDS011;53423;49.224;12.074;2023-05-07T06:03:14;8.53;;;7.73;;
2840;SDS011;53423;49.224;12.074;2023-05-07T06:05:42;7.83;;;7.23;;
2840;SDS011;53423;49.224;12.074;2023-05-07T06:08:10;8.47;;;7.77;;
2840;SDS011;53423;49.224;12.074;2023-05-07T06:10:38;8.93;;;8.13;;
2840;SDS011;53423;49.224;12.074;2023-05-07T06:13:07;9.13;;;8.33;;
2840;SDS011;53423;49.224;12.074;2023-05-07T06:15:36;7.90;;;7.20;;
2840;SDS011;53423;49.224;12.074;2023-05-07T06:18:04;8.17;;;7.57;;
2840;SDS011;53423;49.224;12.074;2023-05-07T06:20:32;7.93;;;7.23;;
2840;SDS011;53423;49.224;12.074;2023-05-07T06:23:00;8.53;;;7.83;;
2840;SDS011;53423;49.224;12.074;2023-05-07T06:25:28;8.10;;;7.40;;
2840;SDS011;53423;49.224;12.074;2023-05-07T06:27:56;7.90;;;7.20;;
2840;SDS011;53423;49.224;12.074;2023-05-07T06:30:24;7.40;;;6.80;;
2840;SDS011;53423;49.224;12.074;2023-05-07T06:32:54;7.80;;;7.20;;
2840;SDS011;53423;49.224;12.074;2023-05-07T06:35:22;7.67;;;7.07;;
2840;SDS011;53423;49.224;12.074;2023-05-07T06:37:50;7.90;;;7.20;;
2840;SDS011;53423;49.224;12.074;2023-05-07T06:40:18;7.53;;;6.93;;
2840;SDS011;53423;49.224;12.074;2023-05-07T06:42:46;7.80;;;7.20;;
2840;SDS011;53423;49.224;12.074;2023-05-07T06:45:14;7.70;;;7.10;;
2840;SDS011;53423;49.224;12.074;2023-05-07T06:47:41;8.43;;;7.63;;
2840;SDS011;53423;49.224;12.074;2023-05-07T06:50:11;7.93;;;7.32;;
2840;SDS011;53423;49.224;12.074;2023-05-07T06:52:39;7.63;;;7.03;;
2840;SDS011;53423;49.224;12.074;2023-05-07T06:55:07;7.25;;;6.75;;
2840;SDS011;53423;49.224;12.074;2023-05-07T06:57:37;7.68;;;6.70;;
2840;SDS011;53423;49.224;12.074;2023-05-07T07:00:05;6.70;;;6.13;;
2840;SDS011;53423;49.224;12.074;2023-05-07T07:02:36;7.20;;;6.50;;
2840;SDS011;53423;49.224;12.074;2023-05-07T07:05:04;7.40;;;6.70;;
2840;SDS011;53423;49.224;12.074;2023-05-07T07:07:34;6.78;;;6.28;;
2840;SDS011;53423;49.224;12.074;2023-05-07T07:10:02;6.93;;;6.32;;
2840;SDS011;53423;49.224;12.074;2023-05-07T07:12:31;6.63;;;6.13;;
2840;SDS011;53423;49.224;12.074;2023-05-07T07:14:58;6.38;;;5.90;;
2840;SDS011;53423;49.224;12.074;2023-05-07T07:17:26;6.97;;;6.38;;
2840;SDS011;53423;49.224;12.074;2023-05-07T07:19:54;7.60;;;6.90;;
2840;SDS011;53423;49.224;12.074;2023-05-07T07:22:22;7.18;;;6.68;;
2840;SDS011;53423;49.224;12.074;2023-05-07T07:24:51;7.13;;;6.57;;
2840;SDS011;53423;49.224;12.074;2023-05-07T07:27:19;5.88;;;5.38;;
2840;SDS011;53423;49.224;12.074;2023-05-07T07:29:47;7.03;;;6.43;;
2840;SDS011;53423;49.224;12.074;2023-05-07T07:32:15;6.68;;;6.07;;
2840;SDS011;53423;49.224;12.074;2023-05-07T07:34:43;6.25;;;5.85;;
2840;SDS011;53423;49.224;12.074;2023-05-07T07:37:11;6.32;;;5.82;;
2840;SDS011;53423;49.224;12.074;2023-05-07T07:39:39;7.05;;;6.45;;
2840;SDS011;53423;49.224;12.074;2023-05-07T07:42:08;6.47;;;5.97;;
2840;SDS011;53423;49.224;12.074;2023-05-07T07:44:36;6.75;;;6.15;;
2840;SDS011;53423;49.224;12.074;2023-05-07T07:47:05;6.47;;;6.00;;
2840;SDS011;53423;49.224;12.074;2023-05-07T07:49:33;6.45;;;6.05;;
2840;SDS011;53423;49.224;12.074;2023-05-07T07:52:01;7.18;;;6.47;;
2840;SDS011;53423;49.224;12.074;2023-05-07T07:54:30;6.60;;;6.15;;
2840;SDS011;53423;49.224;12.074;2023-05-07T07:56:57;6.70;;;6.20;;
2840;SDS011;53423;49.224;12.074;2023-05-07T07:59:27;6.40;;;5.88;;
2840;SDS011;53423;49.224;12.074;2023-05-07T08:01:55;6.75;;;6.15;;
2840;SDS011;53423;49.224;12.074;2023-05-07T08:04:23;7.00;;;6.47;;
2840;SDS011;53423;49.224;12.074;2023-05-07T08:06:51;6.80;;;6.30;;
2840;SDS011;53423;49.224;12.074;2023-05-07T08:09:20;6.85;;;6.25;;
2840;SDS011;53423;49.224;12.074;2023-05-07T08:11:48;6.57;;;6.07;;
2840;SDS011;53423;49.224;12.074;2023-05-07T08:14:16;6.38;;;5.88;;
2840;SDS011;53423;49.224;12.074;2023-05-07T08:16:45;6.65;;;6.10;;
2840;SDS011;53423;49.224;12.074;2023-05-07T08:19:13;6.93;;;6.32;;
2840;SDS011;53423;49.224;12.074;2023-05-07T08:21:42;7.15;;;6.55;;
2840;SDS011;53423;49.224;12.074;2023-05-07T08:24:10;6.55;;;6.05;;
2840;SDS011;53423;49.224;12.074;2023-05-07T08:26:39;6.85;;;6.35;;
2840;SDS011;53423;49.224;12.074;2023-05-07T08:29:07;6.55;;;6.07;;
2840;SDS011;53423;49.224;12.074;2023-05-07T08:31:35;6.75;;;6.22;;
2840;SDS011;53423;49.224;12.074;2023-05-07T08:34:04;6.18;;;5.78;;
2840;SDS011;53423;49.224;12.074;2023-05-07T08:36:35;6.40;;;5.80;;
2840;SDS011;53423;49.224;12.074;2023-05-07T08:39:03;6.78;;;6.28;;
2840;SDS011;53423;49.224;12.074;2023-05-07T08:41:31;6.07;;;5.68;;
2840;SDS011;53423;49.224;12.074;2023-05-07T08:43:59;6.80;;;6.07;;
2840;SDS011;53423;49.224;12.074;2023-05-07T08:46:30;6.50;;;5.90;;
2840;SDS011;53423;49.224;12.074;2023-05-07T08:48:59;6.67;;;6.17;;
2840;SDS011;53423;49.224;12.074;2023-05-07T08:51:28;6.35;;;5.85;;
2840;SDS011;53423;49.224;12.074;2023-05-07T08:53:57;6.32;;;5.80;;
2840;SDS011;53423;49.224;12.074;2023-05-07T08:56:26;6.28;;;5.78;;
2840;SDS011;53423;49.224;12.074;2023-05-07T08:58:54;6.60;;;6.10;;
2840;SDS011;53423;49.224;12.074;2023-05-07T09:01:23;7.35;;;6.65;;
2840;SDS011;53423;49.224;12.074;2023-05-07T09:03:51;6.43;;;6.00;;
2840;SDS011;53423;49.224;12.074;2023-05-07T09:06:21;6.50;;;5.90;;
2840;SDS011;53423;49.224;12.074;2023-05-07T09:08:50;6.35;;;5.82;;
2840;SDS011;53423;49.224;12.074;2023-05-07T09:11:20;6.40;;;5.75;;
2840;SDS011;53423;49.224;12.074;2023-05-07T09:13:52;6.55;;;6.15;;
2840;SDS011;53423;49.224;12.074;2023-05-07T09:16:21;6.20;;;5.65;;
2840;SDS011;53423;49.224;12.074;2023-05-07T09:18:50;6.47;;;5.97;;
2840;SDS011;53423;49.224;12.074;2023-05-07T09:21:19;6.18;;;5.75;;
2840;SDS011;53423;49.224;12.074;2023-05-07T09:23:51;6.60;;;6.07;;
2840;SDS011;53423;49.224;12.074;2023-05-07T09:26:21;6.50;;;6.00;;
2840;SDS011;53423;49.224;12.074;2023-05-07T09:28:49;6.82;;;6.32;;
2840;SDS011;53423;49.224;12.074;2023-05-07T09:31:17;6.95;;;6.38;;
2840;SDS011;53423;49.224;12.074;2023-05-07T09:33:47;6.57;;;5.95;;
2840;SDS011;53423;49.224;12.074;2023-05-07T09:36:14;6.78;;;6.28;;
2840;SDS011;53423;49.224;12.074;2023-05-07T09:38:43;6.47;;;5.88;;
2840;SDS011;53423;49.224;12.074;2023-05-07T09:41:14;6.63;;;6.13;;
2840;SDS011;53423;49.224;12.074;2023-05-07T09:43:41;6.95;;;6.45;;
2840;SDS011;53423;49.224;12.074;2023-05-07T09:46:11;5.95;;;5.45;;
2840;SDS011;53423;49.224;12.074;2023-05-07T09:48:41;6.65;;;6.07;;
2840;SDS011;53423;49.224;12.074;2023-05-07T09:51:14;6.55;;;5.80;;
2840;SDS011;53423;49.224;12.074;2023-05-07T09:53:49;6.40;;;5.80;;
2840;SDS011;53423;49.224;12.074;2023-05-07T09:56:21;6.60;;;6.10;;
2840;SDS011;53423;49.224;12.074;2023-05-07T09:58:50;6.50;;;6.00;;
2840;SDS011;53423;49.224;12.074;2023-05-07T10:01:21;6.32;;;5.82;;
2840;SDS011;53423;49.224;12.074;2023-05-07T10:03:50;7.05;;;6.45;;
2840;SDS011;53423;49.224;12.074;2023-05-07T10:06:20;8.10;;;7.40;;
2840;SDS011;53423;49.224;12.074;2023-05-07T10:08:49;7.53;;;6.82;;
2840;SDS011;53423;49.224;12.074;2023-05-07T10:11:20;6.28;;;5.78;;
2840;SDS011;53423;49.224;12.074;2023-05-07T10:13:49;6.75;;;6.22;;
2840;SDS011;53423;49.224;12.074;2023-05-07T10:16:19;6.00;;;5.60;;
2840;SDS011;53423;49.224;12.074;2023-05-07T10:18:48;6.57;;;6.05;;
2840;SDS011;53423;49.224;12.074;2023-05-07T10:21:18;6.28;;;5.78;;
2840;SDS011;53423;49.224;12.074;2023-05-07T10:23:48;6.68;;;6.18;;
2840;SDS011;53423;49.224;12.074;2023-05-07T10:26:18;6.10;;;5.50;;
2840;SDS011;53423;49.224;12.074;2023-05-07T10:28:53;7.38;;;6.25;;
2840;SDS011;53423;49.224;12.074;2023-05-07T10:31:42;6.13;;;5.72;;
2840;SDS011;53423;49.224;12.074;2023-05-07T10:34:19;6.45;;;5.90;;
2840;SDS011;53423;49.224;12.074;2023-05-07T10:36:50;5.88;;;5.28;;
2840;SDS011;53423;49.224;12.074;2023-05-07T10:39:19;6.03;;;5.60;;
2840;SDS011;53423;49.224;12.074;2023-05-07T10:41:49;6.20;;;5.60;;
2840;SDS011;53423;49.224;12.074;2023-05-07T10:44:27;5.53;;;5.03;;
2840;SDS011;53423;49.224;12.074;2023-05-07T10:55:50;5.70;;;5.30;;
2840;SDS011;53423;49.224;12.074;2023-05-07T10:58:24;6.18;;;5.68;;
2840;SDS011;53423;49.224;12.074;2023-05-07T11:00:58;5.55;;;5.15;;
2840;SDS011;53423;49.224;12.074;2023-05-07T11:03:27;5.82;;;5.32;;
2840;SDS011;53423;49.224;12.074;2023-05-07T11:06:08;5.78;;;5.38;;
2840;SDS011;53423;49.224;12.074;2023-05-07T11:08:53;5.70;;;5.30;;
2840;SDS011;53423;49.224;12.074;2023-05-07T11:14:15;81.78;;;32.42;;
2840;SDS011;53423;49.224;12.074;2023-05-07T11:17:12;7.45;;;6.75;;
2840;SDS011;53423;49.224;12.074;2023-05-07T11:19:49;7.30;;;6.18;;
2840;SDS011;53423;49.224;12.074;2023-05-07T11:22:36;6.65;;;5.85;;
2840;SDS011;53423;49.224;12.074;2023-05-07T11:25:06;6.35;;;5.75;;
2840;SDS011;53423;49.224;12.074;2023-05-07T11:27:34;5.75;;;5.25;;
2840;SDS011;53423;49.224;12.074;2023-05-07T11:30:04;5.82;;;5.43;;
2840;SDS011;53423;49.224;12.074;2023-05-07T11:32:33;5.93;;;5.32;;
2840;SDS011;53423;49.224;12.074;2023-05-07T11:35:00;5.97;;;5.53;;
2840;SDS011;53423;49.224;12.074;2023-05-07T11:37:29;6.22;;;5.63;;
2840;SDS011;53423;49.224;12.074;2023-05-07T11:40:03;5.90;;;5.40;;
2840;SDS011;53423;49.224;12.074;2023-05-07T11:42:33;7.10;;;6.53;;
2840;SDS011;53423;49.224;12.074;2023-05-07T11:45:05;6.40;;;5.90;;
2840;SDS011;53423;49.224;12.074;2023-05-07T11:47:35;5.88;;;5.38;;
2840;SDS011;53423;49.224;12.074;2023-05-07T11:50:04;6.07;;;5.47;;
2840;SDS011;53423;49.224;12.074;2023-05-07T11:52:34;6.88;;;6.28;;
2840;SDS011;53423;49.224;12.074;2023-05-07T11:55:03;6.90;;;6.40;;
2840;SDS011;53423;49.224;12.074;2023-05-07T11:57:33;6.93;;;6.32;;
2840;SDS011;53423;49.224;12.074;2023-05-07T12:00:01;7.82;;;7.13;;
2840;SDS011;53423;49.224;12.074;2023-05-07T12:02:33;7.97;;;7.28;;
2840;SDS011;53423;49.224;12.074;2023-05-07T12:05:01;6.70;;;6.10;;
2840;SDS011;53423;49.224;12.074;2023-05-07T12:07:29;6.72;;;6.18;;
2840;SDS011;53423;49.224;12.074;2023-05-07T12:10:03;6.18;;;5.68;;
2840;SDS011;53423;49.224;12.074;2023-05-07T12:12:37;6.05;;;5.57;;
2840;SDS011;53423;49.224;12.074;2023-05-07T12:15:06;6.25;;;5.55;;
2840;SDS011;53423;49.224;12.074;2023-05-07T12:17:36;6.20;;;5.40;;
2840;SDS011;53423;49.224;12.074;2023-05-07T12:20:05;5.80;;;5.40;;
2840;SDS011;53423;49.224;12.074;2023-05-07T12:22:35;5.95;;;5.40;;
2840;SDS011;53423;49.224;12.074;2023-05-07T12:25:03;5.10;;;4.70;;
2840;SDS011;53423;49.224;12.074;2023-05-07T12:27:33;4.78;;;4.47;;
2840;SDS011;53423;49.224;12.074;2023-05-07T12:30:05;4.97;;;4.57;;
2840;SDS011;53423;49.224;12.074;2023-05-07T12:32:38;4.82;;;4.32;;
2840;SDS011;53423;49.224;12.074;2023-05-07T12:35:06;4.85;;;4.15;;
2840;SDS011;53423;49.224;12.074;2023-05-07T12:37:35;4.68;;;4.28;;
2840;SDS011;53423;49.224;12.074;2023-05-07T12:40:03;5.03;;;4.63;;
2840;SDS011;53423;49.224;12.074;2023-05-07T12:42:35;4.47;;;4.18;;
2840;SDS011;53423;49.224;12.074;2023-05-07T12:45:10;4.72;;;4.32;;
2840;SDS011;53423;49.224;12.074;2023-05-07T12:47:44;4.80;;;4.30;;
2840;SDS011;53423;49.224;12.074;2023-05-07T12:50:12;4.38;;;3.83;;
2840;SDS011;53423;49.224;12.074;2023-05-07T12:52:40;5.43;;;3.78;;
2840;SDS011;53423;49.224;12.074;2023-05-07T12:55:08;4.25;;;3.88;;
2840;SDS011;53423;49.224;12.074;2023-05-07T12:57:38;4.40;;;4.00;;
2840;SDS011;53423;49.224;12.074;2023-05-07T13:00:07;4.13;;;3.83;;
2840;SDS011;53423;49.224;12.074;2023-05-07T13:02:37;4.47;;;4.07;;
2840;SDS011;53423;49.224;12.074;2023-05-07T13:05:08;4.20;;;3.90;;
2840;SDS011;53423;49.224;12.074;2023-05-07T13:07:36;4.25;;;3.95;;
2840;SDS011;53423;49.224;12.074;2023-05-07T13:10:05;3.75;;;3.45;;
2840;SDS011;53423;49.224;12.074;2023-05-07T13:12:33;4.25;;;3.95;;
2840;SDS011;53423;49.224;12.074;2023-05-07T13:15:01;4.63;;;4.22;;
2840;SDS011;53423;49.224;12.074;2023-05-07T13:17:30;6.40;;;4.25;;
2840;SDS011;53423;49.224;12.074;2023-05-07T13:19:58;4.20;;;3.90;;
2840;SDS011;53423;49.224;12.074;2023-05-07T13:22:27;4.32;;;3.92;;
2840;SDS011;53423;49.224;12.074;2023-05-07T13:24:55;4.00;;;3.60;;
2840;SDS011;53423;49.224;12.074;2023-05-07T13:27:23;4.05;;;3.75;;
2840;SDS011;53423;49.224;12.074;2023-05-07T13:29:52;3.58;;;3.35;;
2840;SDS011;53423;49.224;12.074;2023-05-07T13:32:20;4.25;;;3.83;;
2840;SDS011;53423;49.224;12.074;2023-05-07T13:34:48;3.70;;;3.40;;
2840;SDS011;53423;49.224;12.074;2023-05-07T13:37:16;3.85;;;3.55;;
2840;SDS011;53423;49.224;12.074;2023-05-07T13:39:45;3.70;;;3.40;;
2840;SDS011;53423;49.224;12.074;2023-05-07T13:42:16;3.53;;;3.30;;
2840;SDS011;53423;49.224;12.074;2023-05-07T13:44:44;3.75;;;3.45;;
2840;SDS011;53423;49.224;12.074;2023-05-07T13:47:12;3.35;;;3.15;;
2840;SDS011;53423;49.224;12.074;2023-05-07T13:49:41;3.80;;;3.50;;
2840;SDS011;53423;49.224;12.074;2023-05-07T13:52:08;4.40;;;4.00;;
2840;SDS011;53423;49.224;12.074;2023-05-07T13:54:39;4.00;;;3.70;;
2840;SDS011;53423;49.224;12.074;2023-05-07T13:57:09;4.00;;;3.70;;
2840;SDS011;53423;49.224;12.074;2023-05-07T13:59:37;3.97;;;3.67;;
2840;SDS011;53423;49.224;12.074;2023-05-07T14:02:05;4.75;;;3.80;;
2840;SDS011;53423;49.224;12.074;2023-05-07T14:04:33;4.28;;;3.90;;
2840;SDS011;53423;49.224;12.074;2023-05-07T14:07:01;4.40;;;3.80;;
2840;SDS011;53423;49.224;12.074;2023-05-07T14:09:29;4.05;;;3.75;;
2840;SDS011;53423;49.224;12.074;2023-05-07T14:11:58;3.97;;;3.67;;
2840;SDS011;53423;49.224;12.074;2023-05-07T14:14:27;4.03;;;3.72;;
2840;SDS011;53423;49.224;12.074;2023-05-07T14:16:58;4.68;;;4.30;;
2840;SDS011;53423;49.224;12.074;2023-05-07T14:19:26;4.32;;;4.03;;
2840;SDS011;53423;49.224;12.074;2023-05-07T14:21:53;4.45;;;4.10;;
2840;SDS011;53423;49.224;12.074;2023-05-07T14:24:24;3.72;;;3.42;;
2840;SDS011;53423;49.224;12.074;2023-05-07T14:27:04;4.60;;;4.30;;
2840;SDS011;53423;49.224;12.074;2023-05-07T14:29:33;4.28;;;3.97;;
2840;SDS011;53423;49.224;12.074;2023-05-07T14:32:05;3.97;;;3.60;;
2840;SDS011;53423;49.224;12.074;2023-05-07T14:34:33;4.57;;;3.95;;
2840;SDS011;53423;49.224;12.074;2023-05-07T14:37:01;4.22;;;3.83;;
2840;SDS011;53423;49.224;12.074;2023-05-07T14:39:29;4.10;;;3.80;;
2840;SDS011;53423;49.224;12.074;2023-05-07T14:41:57;4.40;;;4.10;;
2840;SDS011;53423;49.224;12.074;2023-05-07T14:44:24;5.30;;;4.22;;
2840;SDS011;53423;49.224;12.074;2023-05-07T14:46:54;4.53;;;4.22;;
2840;SDS011;53423;49.224;12.074;2023-05-07T14:49:22;5.13;;;4.20;;
2840;SDS011;53423;49.224;12.074;2023-05-07T14:51:50;4.60;;;4.20;;
2840;SDS011;53423;49.224;12.074;2023-05-07T14:54:18;4.40;;;4.10;;
2840;SDS011;53423;49.224;12.074;2023-05-07T14:56:46;4.82;;;4.43;;
2840;SDS011;53423;49.224;12.074;2023-05-07T14:59:14;4.88;;;4.45;;
2840;SDS011;53423;49.224;12.074;2023-05-07T15:01:43;4.75;;;4.35;;
2840;SDS011;53423;49.224;12.074;2023-05-07T15:04:13;4.20;;;3.90;;
2840;SDS011;53423;49.224;12.074;2023-05-07T15:06:41;4.50;;;4.10;;